createdAt,value
2017-10-03T09:40:48.336Z,1009.68
2017-10-03T09:41:48.028Z,1009.63
2017-10-03T09:43:41.637Z,1009.69
2017-10-03T09:52:31.923Z,1009.83
2017-10-03T09:53:31.890Z,1009.88
2017-10-03T09:55:27.795Z,1009.94
2017-10-03T09:56:27.752Z,1009.94
2017-10-03T09:58:21.464Z,1009.98
2017-10-03T09:59:21.453Z,1009.96
2017-10-03T10:01:15.867Z,1009.93
2017-10-03T10:02:15.835Z,1009.92
2017-10-03T10:04:09.559Z,1009.97
2017-10-03T10:05:09.587Z,1009.97
2017-10-03T10:07:03.105Z,1009.98
2017-10-03T10:08:03.097Z,1010.00
2017-10-03T10:09:56.628Z,1009.92
2017-10-03T10:10:56.587Z,1010.00
2017-10-03T10:12:50.267Z,1009.93
2017-10-03T10:13:50.261Z,1009.98
2017-10-03T10:15:43.861Z,1009.85
2017-10-03T10:16:43.825Z,1009.88
2017-10-03T10:18:37.559Z,1009.92
2017-10-03T10:19:37.475Z,1009.94
2017-10-03T10:21:31.030Z,1010.03
2017-10-03T10:22:31.024Z,1010.00
2017-10-03T10:24:24.689Z,1009.93
2017-10-03T10:25:24.657Z,1010.00
2017-10-03T10:27:18.237Z,1010.03
2017-10-03T10:28:18.230Z,1010.09
2017-10-03T10:29:18.226Z,1010.03
2017-10-03T10:30:18.223Z,1010.07
2017-10-03T10:31:18.228Z,1010.09
2017-10-03T10:32:18.219Z,1010.14
2017-10-03T10:33:18.215Z,1010.11
2017-10-03T10:34:18.210Z,1010.12
2017-10-03T10:35:18.213Z,1010.14
2017-10-03T10:36:18.204Z,1010.16
2017-10-03T10:37:18.204Z,1010.12
2017-10-03T10:38:18.198Z,1010.16
2017-10-03T10:39:18.205Z,1010.13
2017-10-03T10:40:18.192Z,1010.20
2017-10-03T10:41:18.191Z,1010.22
2017-10-03T10:42:18.195Z,1010.18
2017-10-03T10:43:18.184Z,1010.19
2017-10-03T10:44:18.181Z,1010.21
2017-10-03T10:45:18.176Z,1010.28
2017-10-03T10:46:18.193Z,1010.16
2017-10-03T10:47:18.171Z,1010.22
2017-10-03T10:48:18.164Z,1010.26
2017-10-03T10:49:18.162Z,1010.35
2017-10-03T10:50:18.161Z,1010.33
2017-10-03T10:51:18.156Z,1010.38
2017-10-03T10:52:18.153Z,1010.32
2017-10-03T10:53:18.149Z,1010.29
2017-10-03T10:54:18.147Z,1010.39
2017-10-03T10:55:18.143Z,1010.33
2017-10-03T10:56:18.139Z,1010.37
2017-10-03T10:57:18.134Z,1010.38
2017-10-03T10:58:18.136Z,1010.34
2017-10-03T10:59:18.130Z,1010.44
2017-10-03T11:00:18.132Z,1010.48
2017-10-03T11:01:18.127Z,1010.31
2017-10-03T11:02:18.145Z,1010.40
2017-10-03T11:03:18.132Z,1010.43
2017-10-03T11:04:18.122Z,1010.36
2017-10-03T11:05:18.119Z,1010.43
2017-10-03T11:06:18.123Z,1010.45
2017-10-03T11:07:18.118Z,1010.46
2017-10-03T11:08:18.119Z,1010.48
2017-10-03T11:09:18.117Z,1010.47
2017-10-03T11:10:18.116Z,1010.49
2017-10-03T11:11:18.121Z,1010.58
2017-10-03T11:12:18.118Z,1010.48
2017-10-03T11:13:18.117Z,1010.59
2017-10-03T11:14:18.119Z,1010.55
2017-10-03T11:15:18.134Z,1010.63
2017-10-03T11:16:18.124Z,1010.67
2017-10-03T11:17:18.135Z,1010.75
2017-10-03T11:18:18.263Z,1010.77
2017-10-03T11:19:18.131Z,1010.71
2017-10-03T11:20:18.129Z,1010.69
2017-10-03T11:21:18.138Z,1010.78
2017-10-03T11:22:18.133Z,1010.80
2017-10-03T11:23:18.135Z,1010.74
2017-10-03T11:24:18.137Z,1010.79
2017-10-03T11:25:18.138Z,1010.73
2017-10-03T11:26:18.161Z,1010.76
2017-10-03T11:27:18.141Z,1010.80
2017-10-03T11:28:18.146Z,1010.77
2017-10-03T11:29:18.148Z,1010.78
2017-10-03T11:30:18.147Z,1010.73
2017-10-03T11:31:18.148Z,1010.67
2017-10-03T11:32:18.149Z,1010.86
2017-10-03T11:33:18.151Z,1010.79
2017-10-03T11:34:18.163Z,1010.87
2017-10-03T11:35:18.157Z,1010.82
2017-10-03T11:36:18.156Z,1010.83
2017-10-03T11:37:18.157Z,1010.77
2017-10-03T11:38:18.158Z,1010.86
2017-10-03T11:39:18.159Z,1010.85
2017-10-03T11:40:18.173Z,1010.83
2017-10-03T11:41:18.162Z,1010.91
2017-10-03T11:42:18.165Z,1010.87
2017-10-03T11:43:18.164Z,1010.97
2017-10-03T11:44:18.167Z,1010.98
2017-10-03T11:45:18.167Z,1011.01
2017-10-03T11:46:18.170Z,1010.98
2017-10-03T11:47:18.170Z,1010.97
2017-10-03T11:48:18.175Z,1011.01
2017-10-03T11:49:18.174Z,1011.06
2017-10-03T11:50:18.176Z,1011.10
2017-10-03T11:51:18.179Z,1011.07
2017-10-03T11:52:18.184Z,1011.17
2017-10-03T11:53:18.180Z,1011.08
2017-10-03T11:54:18.183Z,1011.09
2017-10-03T11:55:18.186Z,1011.07
2017-10-03T11:56:18.186Z,1010.97
2017-10-03T11:57:18.188Z,1011.11
2017-10-03T11:58:18.193Z,1011.09
2017-10-03T11:59:18.198Z,1011.11
2017-10-03T12:00:18.195Z,1011.06
2017-10-03T12:01:18.196Z,1011.18
2017-10-03T12:02:18.197Z,1011.13
2017-10-03T12:03:18.199Z,1011.12
2017-10-03T12:04:18.202Z,1011.13
2017-10-03T12:05:18.202Z,1011.14
2017-10-03T12:06:18.201Z,1011.13
2017-10-03T12:07:18.203Z,1011.10
2017-10-03T12:08:18.206Z,1011.15
2017-10-03T12:09:18.208Z,1011.10
2017-10-03T12:10:18.203Z,1011.13
2017-10-03T12:11:18.203Z,1011.24
2017-10-03T12:12:18.203Z,1011.31
2017-10-03T12:13:18.201Z,1011.30
2017-10-03T12:14:18.201Z,1011.34
2017-10-03T12:15:18.202Z,1011.33
2017-10-03T12:16:18.197Z,1011.36
2017-10-03T12:17:18.200Z,1011.33
2017-10-03T12:18:18.196Z,1011.24
2017-10-03T12:19:18.193Z,1011.36
2017-10-03T12:20:18.191Z,1011.31
2017-10-03T12:21:18.188Z,1011.33
2017-10-03T12:22:18.187Z,1011.38
2017-10-03T12:23:18.188Z,1011.39
2017-10-03T12:24:18.184Z,1011.47
2017-10-03T12:25:18.191Z,1011.43
2017-10-03T12:26:18.183Z,1011.40
2017-10-03T12:27:18.176Z,1011.37
2017-10-03T12:28:18.174Z,1011.42
2017-10-03T12:29:18.174Z,1011.41
2017-10-03T12:30:18.171Z,1011.43
2017-10-03T12:31:18.172Z,1011.41
2017-10-03T12:32:18.176Z,1011.48
2017-10-03T12:33:18.168Z,1011.38
2017-10-03T12:34:18.170Z,1011.48
2017-10-03T12:35:18.175Z,1011.45
2017-10-03T12:36:18.595Z,1011.49
2017-10-03T12:37:21.235Z,1011.41
2017-10-03T12:38:18.172Z,1011.43
2017-10-03T12:39:18.169Z,1011.44
2017-10-03T12:40:18.170Z,1011.43
2017-10-03T12:41:18.172Z,1011.44
2017-10-03T12:42:18.171Z,1011.38
2017-10-03T12:43:18.174Z,1011.35
2017-10-03T12:44:18.183Z,1011.53
2017-10-03T12:45:18.174Z,1011.48
2017-10-03T12:46:18.175Z,1011.48
2017-10-03T12:47:18.176Z,1011.54
2017-10-03T12:48:18.231Z,1011.42
2017-10-03T12:49:18.181Z,1011.52
2017-10-03T12:50:18.182Z,1011.47
2017-10-03T12:51:18.187Z,1011.40
2017-10-03T12:52:18.207Z,1011.49
2017-10-03T12:53:18.188Z,1011.53
2017-10-03T12:54:18.189Z,1011.51
2017-10-03T12:55:18.190Z,1011.54
2017-10-03T12:56:18.191Z,1011.62
2017-10-03T12:57:18.193Z,1011.49
2017-10-03T12:58:18.194Z,1011.52
2017-10-03T12:59:18.197Z,1011.60
2017-10-03T13:00:18.202Z,1011.60
2017-10-03T13:01:18.201Z,1011.58
2017-10-03T13:02:18.201Z,1011.53
2017-10-03T13:03:18.203Z,1011.57
2017-10-03T13:04:18.207Z,1011.43
2017-10-03T13:05:18.232Z,1011.46
2017-10-03T13:06:18.208Z,1011.42
2017-10-03T13:07:18.211Z,1011.43
2017-10-03T13:08:18.213Z,1011.45
2017-10-03T13:09:18.214Z,1011.41
2017-10-03T13:10:18.218Z,1011.35
2017-10-03T13:11:18.214Z,1011.39
2017-10-03T13:12:18.224Z,1011.41
2017-10-03T13:13:18.224Z,1011.40
2017-10-03T13:14:18.219Z,1011.41
2017-10-03T13:15:18.217Z,1011.44
2017-10-03T13:16:18.225Z,1011.57
2017-10-03T13:17:18.217Z,1011.45
2017-10-03T13:18:18.217Z,1011.45
2017-10-03T13:19:18.218Z,1011.49
2017-10-03T13:20:18.218Z,1011.50
2017-10-03T13:21:18.217Z,1011.52
2017-10-03T13:22:18.214Z,1011.48
2017-10-03T13:23:18.217Z,1011.57
2017-10-03T13:24:18.216Z,1011.58
2017-10-03T13:25:18.212Z,1011.52
2017-10-03T13:26:18.208Z,1011.55
2017-10-03T13:27:18.205Z,1011.64
2017-10-03T13:28:18.206Z,1011.59
2017-10-03T13:29:18.202Z,1011.75
2017-10-03T13:30:18.217Z,1011.75
2017-10-03T13:31:18.197Z,1011.62
2017-10-03T13:32:18.194Z,1011.72
2017-10-03T13:33:18.202Z,1011.76
2017-10-03T13:34:18.190Z,1011.70
2017-10-03T13:35:18.189Z,1011.73
2017-10-03T13:36:18.185Z,1011.80
2017-10-03T13:37:18.179Z,1011.82
2017-10-03T13:38:18.182Z,1011.84
2017-10-03T13:39:18.175Z,1011.81
2017-10-03T13:40:18.169Z,1011.81
2017-10-03T13:41:18.165Z,1011.84
2017-10-03T13:42:18.161Z,1011.88
2017-10-03T13:43:18.201Z,1011.89
2017-10-03T13:44:18.171Z,1011.90
2017-10-03T13:45:18.150Z,1011.93
2017-10-03T13:46:18.151Z,1011.94
2017-10-03T13:47:18.140Z,1011.97
2017-10-03T13:48:18.136Z,1012.01
2017-10-03T13:49:18.132Z,1012.03
2017-10-03T13:50:18.144Z,1012.02
2017-10-03T13:51:18.125Z,1012.03
2017-10-03T13:52:18.123Z,1012.03
2017-10-03T13:53:18.115Z,1012.00
2017-10-03T13:54:18.109Z,1011.97
2017-10-03T13:55:18.105Z,1012.00
2017-10-03T13:56:18.100Z,1011.99
2017-10-03T13:57:18.105Z,1011.99
2017-10-03T13:58:18.091Z,1011.99
2017-10-03T13:59:18.090Z,1011.95
2017-10-03T14:00:18.084Z,1011.96
2017-10-03T14:01:18.079Z,1011.91
2017-10-03T14:02:18.075Z,1011.96
2017-10-03T14:03:18.074Z,1011.93
2017-10-03T14:04:18.070Z,1011.92
2017-10-03T14:05:18.065Z,1011.95
2017-10-03T14:06:18.062Z,1011.93
2017-10-03T14:07:18.070Z,1011.96
2017-10-03T14:08:18.056Z,1011.96
2017-10-03T14:09:18.055Z,1011.96
2017-10-03T14:10:18.050Z,1011.97
2017-10-03T14:11:18.047Z,1012.04
2017-10-03T14:12:18.042Z,1011.99
2017-10-03T14:13:18.039Z,1012.06
2017-10-03T14:14:18.038Z,1012.03
2017-10-03T14:15:18.033Z,1012.04
2017-10-03T14:16:18.036Z,1012.12
2017-10-03T14:17:18.026Z,1012.14
2017-10-03T14:18:18.022Z,1012.19
2017-10-03T14:19:18.019Z,1012.21
2017-10-03T14:20:18.025Z,1012.24
2017-10-03T14:21:18.013Z,1012.19
2017-10-03T14:22:18.024Z,1012.24
2017-10-03T14:23:18.008Z,1012.29
2017-10-03T14:24:18.023Z,1012.22
2017-10-03T14:25:18.001Z,1012.31
2017-10-03T14:26:17.997Z,1012.28
2017-10-03T14:27:17.996Z,1012.23
2017-10-03T14:28:17.992Z,1012.26
2017-10-03T14:29:17.986Z,1012.31
2017-10-03T14:30:17.989Z,1012.28
2017-10-03T14:31:17.978Z,1012.29
2017-10-03T14:32:17.978Z,1012.35
2017-10-03T14:33:17.986Z,1012.37
2017-10-03T14:34:17.967Z,1012.42
2017-10-03T14:35:17.971Z,1012.47
2017-10-03T14:36:17.964Z,1012.38
2017-10-03T14:37:17.953Z,1012.38
2017-10-03T14:38:17.953Z,1012.44
2017-10-03T14:39:17.962Z,1012.50
2017-10-03T14:40:17.941Z,1012.46
2017-10-03T14:41:17.936Z,1012.44
2017-10-03T14:42:17.933Z,1012.40
2017-10-03T14:43:17.928Z,1012.44
2017-10-03T14:44:17.921Z,1012.45
2017-10-03T14:45:17.917Z,1012.48
2017-10-03T14:46:17.915Z,1012.45
2017-10-03T14:47:17.907Z,1012.48
2017-10-03T14:48:17.903Z,1012.51
2017-10-03T14:49:17.900Z,1012.47
2017-10-03T14:50:17.892Z,1012.49
2017-10-03T14:51:17.886Z,1012.50
2017-10-03T14:52:17.888Z,1012.49
2017-10-03T14:53:17.875Z,1012.43
2017-10-03T14:54:17.871Z,1012.47
2017-10-03T14:55:17.866Z,1012.45
2017-10-03T14:56:17.862Z,1012.52
2017-10-03T14:57:17.857Z,1012.49
2017-10-03T14:58:17.851Z,1012.56
2017-10-03T14:59:17.849Z,1012.60
2017-10-03T15:00:17.846Z,1012.63
2017-10-03T15:01:17.837Z,1012.60
2017-10-03T15:02:17.832Z,1012.55
2017-10-03T15:03:17.828Z,1012.55
2017-10-03T15:04:17.824Z,1012.51
2017-10-03T15:05:17.818Z,1012.56
2017-10-03T15:06:17.812Z,1012.57
2017-10-03T15:07:17.807Z,1012.62
2017-10-03T15:08:17.802Z,1012.63
2017-10-03T15:09:17.797Z,1012.66
2017-10-03T15:10:17.792Z,1012.61
2017-10-03T15:11:17.788Z,1012.67
2017-10-03T15:12:17.787Z,1012.67
2017-10-03T15:13:17.777Z,1012.66
2017-10-03T15:14:17.769Z,1012.66
2017-10-03T15:15:17.764Z,1012.74
2017-10-03T15:16:17.761Z,1012.68
2017-10-03T15:17:17.758Z,1012.74
2017-10-03T15:18:17.750Z,1012.78
2017-10-03T15:19:17.745Z,1012.78
2017-10-03T15:20:17.740Z,1012.80
2017-10-03T15:21:17.734Z,1012.82
2017-10-03T15:22:17.727Z,1012.82
2017-10-03T15:23:17.730Z,1012.85
2017-10-03T15:24:17.717Z,1012.84
2017-10-03T15:25:17.711Z,1012.83
2017-10-03T15:26:17.705Z,1012.84
2017-10-03T15:27:17.701Z,1012.86
2017-10-03T15:28:17.698Z,1012.80
2017-10-03T15:29:17.687Z,1012.81
2017-10-03T15:30:17.683Z,1012.86
2017-10-03T15:31:17.677Z,1012.85
2017-10-03T15:32:17.671Z,1012.90
2017-10-03T15:33:17.664Z,1012.88
2017-10-03T15:34:17.664Z,1012.89
2017-10-03T15:35:17.653Z,1012.92
2017-10-03T15:36:17.649Z,1012.91
2017-10-03T15:37:17.643Z,1012.91
2017-10-03T15:38:17.636Z,1012.95
2017-10-03T15:39:17.631Z,1012.92
2017-10-03T15:40:17.624Z,1012.95
2017-10-03T15:41:17.617Z,1012.97
2017-10-03T15:42:17.612Z,1012.95
2017-10-03T15:43:17.605Z,1012.95
2017-10-03T15:44:17.654Z,1013.01
2017-10-03T15:45:17.591Z,1013.02
2017-10-03T15:46:17.592Z,1013.03
2017-10-03T15:47:17.581Z,1013.02
2017-10-03T15:48:17.621Z,1013.03
2017-10-03T15:49:17.577Z,1013.10
2017-10-03T15:50:17.585Z,1013.13
2017-10-03T15:51:17.560Z,1013.15
2017-10-03T15:52:17.549Z,1013.10
2017-10-03T15:53:17.547Z,1013.17
2017-10-03T15:54:17.538Z,1013.19
2017-10-03T15:55:17.532Z,1013.18
2017-10-03T15:56:17.524Z,1013.19
2017-10-03T15:57:17.522Z,1013.22
2017-10-03T15:58:17.514Z,1013.22
2017-10-03T15:59:17.506Z,1013.24
2017-10-03T16:00:17.501Z,1013.21
2017-10-03T16:01:17.492Z,1013.17
2017-10-03T16:02:17.487Z,1013.21
2017-10-03T16:03:17.486Z,1013.22
2017-10-03T16:04:17.475Z,1013.19
2017-10-03T16:05:17.468Z,1013.20
2017-10-03T16:06:17.464Z,1013.22
2017-10-03T16:07:17.479Z,1013.21
2017-10-03T16:08:17.451Z,1013.14
2017-10-03T16:09:17.448Z,1013.14
2017-10-03T16:10:17.436Z,1013.14
2017-10-03T16:11:17.431Z,1013.16
2017-10-03T16:12:17.425Z,1013.16
2017-10-03T16:13:17.417Z,1013.16
2017-10-03T16:14:17.412Z,1013.14
2017-10-03T16:15:17.405Z,1013.18
2017-10-03T16:16:17.398Z,1013.18
2017-10-03T16:17:17.390Z,1013.23
2017-10-03T16:18:17.390Z,1013.20
2017-10-03T16:19:17.378Z,1013.22
2017-10-03T16:20:17.377Z,1013.23
2017-10-03T16:21:17.365Z,1013.25
2017-10-03T16:22:17.359Z,1013.25
2017-10-03T16:23:17.353Z,1013.28
2017-10-03T16:24:17.347Z,1013.28
2017-10-03T16:25:17.343Z,1013.25
2017-10-03T16:26:17.332Z,1013.31
2017-10-03T16:27:17.400Z,1013.28
2017-10-03T16:28:17.320Z,1013.28
2017-10-03T16:29:17.313Z,1013.30
2017-10-03T16:30:17.307Z,1013.31
2017-10-03T16:31:17.305Z,1013.35
2017-10-03T16:32:17.294Z,1013.39
2017-10-03T16:33:17.286Z,1013.40
2017-10-03T16:34:17.279Z,1013.44
2017-10-03T16:35:17.277Z,1013.51
2017-10-03T16:36:17.266Z,1013.56
2017-10-03T16:37:17.260Z,1013.55
2017-10-03T16:38:17.252Z,1013.55
2017-10-03T16:39:17.251Z,1013.53
2017-10-03T16:40:17.245Z,1013.57
2017-10-03T16:41:17.233Z,1013.56
2017-10-03T16:42:17.226Z,1013.58
2017-10-03T16:43:17.220Z,1013.56
2017-10-03T16:44:17.212Z,1013.57
2017-10-03T16:45:17.213Z,1013.56
2017-10-03T16:46:17.197Z,1013.56
2017-10-03T16:47:17.192Z,1013.55
2017-10-03T16:48:17.182Z,1013.54
2017-10-03T16:49:17.178Z,1013.50
2017-10-03T16:50:17.171Z,1013.55
2017-10-03T16:51:17.169Z,1013.57
2017-10-03T16:52:17.155Z,1013.56
2017-10-03T16:53:17.147Z,1013.60
2017-10-03T16:54:17.148Z,1013.64
2017-10-03T16:55:17.134Z,1013.62
2017-10-03T16:56:17.130Z,1013.61
2017-10-03T16:57:17.121Z,1013.66
2017-10-03T16:58:17.112Z,1013.67
2017-10-03T16:59:17.107Z,1013.67
2017-10-03T17:00:17.098Z,1013.70
2017-10-03T17:01:17.090Z,1013.69
2017-10-03T17:02:17.082Z,1013.73
2017-10-03T17:03:17.075Z,1013.74
2017-10-03T17:04:17.068Z,1013.76
2017-10-03T17:05:17.060Z,1013.75
2017-10-03T17:06:17.054Z,1013.82
2017-10-03T17:07:17.045Z,1013.79
2017-10-03T17:08:17.040Z,1013.80
2017-10-03T17:09:17.034Z,1013.82
2017-10-03T17:10:17.022Z,1013.78
2017-10-03T17:11:17.017Z,1013.81
2017-10-03T17:12:17.008Z,1013.79
2017-10-03T17:13:17.001Z,1013.84
2017-10-03T17:14:16.990Z,1013.88
2017-10-03T17:15:16.987Z,1013.87
2017-10-03T17:16:16.977Z,1013.88
2017-10-03T17:17:16.974Z,1013.88
2017-10-03T17:18:16.962Z,1013.90
2017-10-03T17:19:16.953Z,1013.89
2017-10-03T17:20:16.955Z,1013.89
2017-10-03T17:21:16.952Z,1013.92
2017-10-03T17:22:16.937Z,1013.95
2017-10-03T17:23:16.924Z,1013.95
2017-10-03T17:24:16.917Z,1013.98
2017-10-03T17:25:16.909Z,1013.96
2017-10-03T17:26:16.900Z,1014.01
2017-10-03T17:27:16.893Z,1014.04
2017-10-03T17:28:16.886Z,1014.06
2017-10-03T17:29:16.878Z,1014.09
2017-10-03T17:30:16.869Z,1014.11
2017-10-03T17:31:16.863Z,1014.09
2017-10-03T17:32:16.855Z,1014.11
2017-10-03T17:33:16.847Z,1014.04
2017-10-03T17:34:16.836Z,1014.08
2017-10-03T17:35:16.830Z,1014.09
2017-10-03T17:36:16.822Z,1014.08
2017-10-03T17:37:16.814Z,1014.10
2017-10-03T17:38:16.807Z,1014.12
2017-10-03T17:39:16.798Z,1014.13
2017-10-03T17:40:16.797Z,1014.17
2017-10-03T17:41:16.782Z,1014.19
2017-10-03T17:42:16.786Z,1014.18
2017-10-03T17:43:16.768Z,1014.20
2017-10-03T17:44:16.759Z,1014.20
2017-10-03T17:45:16.750Z,1014.25
2017-10-03T17:46:16.741Z,1014.22
2017-10-03T17:47:16.733Z,1014.21
2017-10-03T17:48:16.727Z,1014.24
2017-10-03T17:49:16.728Z,1014.20
2017-10-03T17:50:16.714Z,1014.26
2017-10-03T17:51:16.702Z,1014.28
2017-10-03T17:52:16.694Z,1014.29
2017-10-03T17:53:16.689Z,1014.29
2017-10-03T17:54:16.677Z,1014.33
2017-10-03T17:55:16.668Z,1014.38
2017-10-03T17:56:16.662Z,1014.37
2017-10-03T17:57:16.654Z,1014.37
2017-10-03T17:58:16.645Z,1014.37
2017-10-03T17:59:16.637Z,1014.37
2017-10-03T18:00:16.640Z,1014.35
2017-10-03T18:01:16.620Z,1014.34
2017-10-03T18:02:16.612Z,1014.35
2017-10-03T18:03:16.604Z,1014.32
2017-10-03T18:04:16.595Z,1014.33
2017-10-03T18:05:16.585Z,1014.32
2017-10-03T18:06:16.585Z,1014.29
2017-10-03T18:07:16.573Z,1014.32
2017-10-03T18:08:16.567Z,1014.28
2017-10-03T18:09:16.589Z,1014.29
2017-10-03T18:10:16.548Z,1014.33
2017-10-03T18:11:16.582Z,1014.31
2017-10-03T18:12:16.531Z,1014.32
2017-10-03T18:13:16.520Z,1014.33
2017-10-03T18:14:16.543Z,1014.38
2017-10-03T18:15:16.506Z,1014.35
2017-10-03T18:16:16.497Z,1014.39
2017-10-03T18:17:16.492Z,1014.43
2017-10-03T18:18:16.485Z,1014.45
2017-10-03T18:19:16.491Z,1014.46
2017-10-03T18:20:16.468Z,1014.49
2017-10-03T18:21:16.454Z,1014.56
2017-10-03T18:22:16.451Z,1014.58
2017-10-03T18:23:16.438Z,1014.60
2017-10-03T18:24:16.431Z,1014.61
2017-10-03T18:25:16.422Z,1014.68
2017-10-03T18:26:16.413Z,1014.67
2017-10-03T18:27:16.404Z,1014.67
2017-10-03T18:28:16.397Z,1014.69
2017-10-03T18:29:16.388Z,1014.65
2017-10-03T18:30:16.381Z,1014.70
2017-10-03T18:31:16.371Z,1014.68
2017-10-03T18:32:16.362Z,1014.68
2017-10-03T18:33:16.358Z,1014.74
2017-10-03T18:34:16.344Z,1014.77
2017-10-03T18:35:16.337Z,1014.70
2017-10-03T18:36:16.332Z,1014.70
2017-10-03T18:37:16.321Z,1014.70
2017-10-03T18:38:16.311Z,1014.74
2017-10-03T18:39:16.309Z,1014.78
2017-10-03T18:40:16.296Z,1014.77
2017-10-03T18:41:16.288Z,1014.76
2017-10-03T18:42:16.280Z,1014.77
2017-10-03T18:43:16.271Z,1014.79
2017-10-03T18:44:16.262Z,1014.79
2017-10-03T18:45:16.254Z,1014.86
2017-10-03T18:46:16.244Z,1014.87
2017-10-03T18:47:16.241Z,1014.93
2017-10-03T18:48:16.229Z,1014.96
2017-10-03T18:49:16.220Z,1014.94
2017-10-03T18:50:16.211Z,1014.90
2017-10-03T18:51:16.204Z,1014.94
2017-10-03T18:52:16.194Z,1014.95
2017-10-03T18:53:16.188Z,1014.94
2017-10-03T18:54:16.180Z,1014.94
2017-10-03T18:55:16.170Z,1014.98
2017-10-03T18:56:16.163Z,1014.99
2017-10-03T18:57:16.153Z,1014.99
2017-10-03T18:58:16.145Z,1014.96
2017-10-03T18:59:16.137Z,1015.01
2017-10-03T19:00:16.130Z,1015.04
2017-10-03T19:01:16.120Z,1015.06
2017-10-03T19:02:16.119Z,1015.08
2017-10-03T19:03:16.107Z,1015.02
2017-10-03T19:04:16.111Z,1015.06
2017-10-03T19:05:16.087Z,1015.07
2017-10-03T19:06:16.079Z,1015.07
2017-10-03T19:07:16.071Z,1015.01
2017-10-03T19:08:16.067Z,1014.98
2017-10-03T19:09:16.055Z,1015.04
2017-10-03T19:10:16.051Z,1015.02
2017-10-03T19:11:16.038Z,1015.04
2017-10-03T19:12:16.055Z,1015.00
2017-10-03T19:13:16.031Z,1014.99
2017-10-03T19:14:16.011Z,1015.01
2017-10-03T19:15:16.003Z,1015.01
2017-10-03T19:16:15.995Z,1015.04
2017-10-03T19:17:15.986Z,1015.01
2017-10-03T19:18:15.982Z,1015.05
2017-10-03T19:19:15.969Z,1015.06
2017-10-03T19:20:15.961Z,1015.08
2017-10-03T19:21:16.355Z,1015.08
2017-10-03T19:22:16.351Z,1015.13
2017-10-03T19:23:15.940Z,1015.13
2017-10-03T19:24:15.929Z,1015.11
2017-10-03T19:25:15.919Z,1015.11
2017-10-03T19:26:15.909Z,1015.11
2017-10-03T19:27:15.905Z,1015.18
2017-10-03T19:28:15.891Z,1015.16
2017-10-03T19:29:15.883Z,1015.18
2017-10-03T19:30:15.876Z,1015.21
2017-10-03T19:31:15.875Z,1015.27
2017-10-03T19:32:15.858Z,1015.28
2017-10-03T19:33:15.849Z,1015.28
2017-10-03T19:34:15.847Z,1015.31
2017-10-03T19:35:15.837Z,1015.27
2017-10-03T19:36:15.824Z,1015.29
2017-10-03T19:37:15.813Z,1015.23
2017-10-03T19:38:15.806Z,1015.27
2017-10-03T19:39:15.824Z,1015.33
2017-10-03T19:40:15.789Z,1015.28
2017-10-03T19:41:16.181Z,1015.27
2017-10-03T19:42:16.182Z,1015.27
2017-10-03T19:43:15.763Z,1015.27
2017-10-03T19:44:15.755Z,1015.28
2017-10-03T19:45:15.751Z,1015.33
2017-10-03T19:46:15.738Z,1015.36
2017-10-03T19:47:15.729Z,1015.35
2017-10-03T19:48:15.722Z,1015.36
2017-10-03T19:49:15.715Z,1015.46
2017-10-03T19:50:15.702Z,1015.41
2017-10-03T19:51:15.694Z,1015.42
2017-10-03T19:52:15.685Z,1015.42
2017-10-03T19:53:15.677Z,1015.41
2017-10-03T19:54:15.667Z,1015.44
2017-10-03T19:55:15.661Z,1015.39
2017-10-03T19:56:15.650Z,1015.36
2017-10-03T19:57:15.641Z,1015.38
2017-10-03T19:58:15.632Z,1015.35
2017-10-03T19:59:15.626Z,1015.41
2017-10-03T20:00:15.616Z,1015.39
2017-10-03T20:01:15.614Z,1015.38
2017-10-03T20:02:15.598Z,1015.39
2017-10-03T20:03:15.596Z,1015.38
2017-10-03T20:04:15.579Z,1015.36
2017-10-03T20:05:15.571Z,1015.35
2017-10-03T20:06:15.567Z,1015.37
2017-10-03T20:07:15.554Z,1015.36
2017-10-03T20:08:15.748Z,1015.40
2017-10-03T20:09:15.567Z,1015.43
2017-10-03T20:10:15.531Z,1015.53
2017-10-03T20:11:15.550Z,1015.50
2017-10-03T20:12:15.537Z,1015.53
2017-10-03T20:13:15.539Z,1015.49
2017-10-03T20:14:15.508Z,1015.50
2017-10-03T20:15:15.483Z,1015.47
2017-10-03T20:16:15.477Z,1015.45
2017-10-03T20:17:15.464Z,1015.49
2017-10-03T20:18:15.457Z,1015.47
2017-10-03T20:19:15.448Z,1015.54
2017-10-03T20:20:15.442Z,1015.48
2017-10-03T20:21:15.428Z,1015.51
2017-10-03T20:22:15.418Z,1015.50
2017-10-03T20:23:15.411Z,1015.52
2017-10-03T20:24:15.411Z,1015.47
2017-10-03T20:25:15.395Z,1015.48
2017-10-03T20:26:15.387Z,1015.50
2017-10-03T20:27:15.378Z,1015.53
2017-10-03T20:28:15.368Z,1015.54
2017-10-03T20:29:15.358Z,1015.56
2017-10-03T20:30:15.349Z,1015.56
2017-10-03T20:31:15.340Z,1015.54
2017-10-03T20:32:15.332Z,1015.51
2017-10-03T20:33:15.325Z,1015.56
2017-10-03T20:34:15.314Z,1015.57
2017-10-03T20:35:15.304Z,1015.54
2017-10-03T20:36:15.295Z,1015.49
2017-10-03T20:37:15.285Z,1015.54
2017-10-03T20:38:15.276Z,1015.50
2017-10-03T20:39:15.280Z,1015.46
2017-10-03T20:40:15.260Z,1015.45
2017-10-03T20:41:15.251Z,1015.48
2017-10-03T20:42:15.247Z,1015.49
2017-10-03T20:43:15.228Z,1015.45
2017-10-03T20:44:15.222Z,1015.46
2017-10-03T20:45:15.211Z,1015.42
2017-10-03T20:46:15.202Z,1015.44
2017-10-03T20:47:15.193Z,1015.44
2017-10-03T20:48:15.185Z,1015.40
2017-10-03T20:49:15.187Z,1015.42
2017-10-03T20:50:15.164Z,1015.41
2017-10-03T20:51:15.174Z,1015.46
2017-10-03T20:52:15.147Z,1015.43
2017-10-03T20:53:15.144Z,1015.40
2017-10-03T20:54:15.128Z,1015.37
2017-10-03T20:55:15.119Z,1015.38
2017-10-03T20:56:15.110Z,1015.44
2017-10-03T20:57:15.099Z,1015.46
2017-10-03T20:58:15.095Z,1015.42
2017-10-03T20:59:15.082Z,1015.41
2017-10-03T21:00:15.076Z,1015.41
2017-10-03T21:01:15.065Z,1015.37
2017-10-03T21:02:15.056Z,1015.42
2017-10-03T21:03:15.050Z,1015.42
2017-10-03T21:04:15.038Z,1015.42
2017-10-03T21:05:15.028Z,1015.41
2017-10-03T21:06:15.018Z,1015.41
2017-10-03T21:07:15.010Z,1015.34
2017-10-03T21:08:15.000Z,1015.39
2017-10-03T21:09:14.990Z,1015.39
2017-10-03T21:10:14.984Z,1015.41
2017-10-03T21:11:14.970Z,1015.44
2017-10-03T21:12:15.841Z,1015.46
2017-10-03T21:13:14.955Z,1015.50
2017-10-03T21:14:14.942Z,1015.46
2017-10-03T21:15:14.933Z,1015.42
2017-10-03T21:16:14.924Z,1015.43
2017-10-03T21:17:14.914Z,1015.38
2017-10-03T21:18:14.904Z,1015.42
2017-10-03T21:19:14.899Z,1015.47
2017-10-03T21:20:14.886Z,1015.50
2017-10-03T21:21:14.881Z,1015.49
2017-10-03T21:22:14.872Z,1015.46
2017-10-03T21:23:14.861Z,1015.45
2017-10-03T21:24:14.853Z,1015.41
2017-10-03T21:25:14.840Z,1015.40
2017-10-03T21:26:14.829Z,1015.40
2017-10-03T21:27:14.826Z,1015.38
2017-10-03T21:28:14.812Z,1015.38
2017-10-03T21:29:14.807Z,1015.40
2017-10-03T21:30:14.795Z,1015.48
2017-10-03T21:31:14.784Z,1015.40
2017-10-03T21:32:14.776Z,1015.37
2017-10-03T21:33:14.764Z,1015.33
2017-10-03T21:34:14.754Z,1015.31
2017-10-03T21:35:14.747Z,1015.38
2017-10-03T21:36:14.742Z,1015.38
2017-10-03T21:37:14.728Z,1015.31
2017-10-03T21:38:14.723Z,1015.32
2017-10-03T21:39:14.714Z,1015.29
2017-10-03T21:40:14.701Z,1015.23
2017-10-03T21:41:14.688Z,1015.19
2017-10-03T21:42:14.682Z,1015.26
2017-10-03T21:43:14.671Z,1015.20
2017-10-03T21:44:14.662Z,1015.24
2017-10-03T21:45:14.651Z,1015.26
2017-10-03T21:46:14.643Z,1015.32
2017-10-03T21:47:14.638Z,1015.30
2017-10-03T21:48:14.624Z,1015.32
2017-10-03T21:49:14.615Z,1015.32
2017-10-03T21:50:14.605Z,1015.33
2017-10-03T21:51:14.595Z,1015.36
2017-10-03T21:52:14.587Z,1015.43
2017-10-03T21:53:14.579Z,1015.46
2017-10-03T21:54:14.572Z,1015.48
2017-10-03T21:55:14.565Z,1015.47
2017-10-03T21:56:14.549Z,1015.52
2017-10-03T21:57:14.540Z,1015.58
2017-10-03T21:58:14.543Z,1015.62
2017-10-03T21:59:14.522Z,1015.60
2017-10-03T22:00:14.512Z,1015.62
2017-10-03T22:01:14.500Z,1015.63
2017-10-03T22:02:14.494Z,1015.68
2017-10-03T22:03:14.482Z,1015.59
2017-10-03T22:04:14.473Z,1015.59
2017-10-03T22:05:14.465Z,1015.60